EmailTwitter


Observations de surface / France / LFBD (07510)

Régions: Québec | Canada | États-Unis | Europe | France | UK | Ailleurs
Station
Affichage
Infos & localisation pour LFBD (07510) | Aide pour décoder les METARs

Observations prises le 2018-04-23 à 09H00 UTC à BORDEAUX/MERIGNA, FR (LFBD)

Etat du ciel: couvert.

Température: 16.0 Celsius

Point de rosée: 13.0 Celsius

Humidité relative: 82%

Vents: Variable à 4 km/h ou 2 noeuds.

Pression au niveau moyen de la mer: 102.10 kilopascals.

Visibilité horizontale: 6.21 milles terrestres ou 9.94 kilomètres.

Hauteur du plafond: 335 mètres ( 1100 pieds ).

Observation METAR:

LFBD 230900Z AUTO VRB02KT 9999 OVC011/// ///TCU 16/13 Q1021 BECMG BKN015=